Time;durP1;ratioP1;P1;durP2;ratioP2;P2;SDS_P1;SDS_P2;PMS_P1;PMS_P2;Temp;Humidity;BMP_temperature;BMP_pressure;BME280_temperature;BME280_humidity;BME280_pressure;Samples;Min_cycle;Max_cycle;Signal;HPM_P1;HPM_P2
2024/01/02 00:02:10;;;;;;;22.90;4.40;;;7.90;99.90;;;;;;4980593;28;39064;-77
2024/01/02 00:04:37;;;;;;;15.70;4.00;;;7.90;99.90;;;;;;4970900;28;36979;-77
2024/01/02 00:07:03;;;;;;;13.30;3.80;;;7.90;99.90;;;;;;4976688;28;37202;-77
2024/01/02 00:09:29;;;;;;;18.90;3.13;;;7.90;99.90;;;;;;4977963;28;37809;-77
2024/01/02 00:11:55;;;;;;;19.27;4.27;;;7.90;99.90;;;;;;4981235;28;38237;-76
2024/01/02 00:14:21;;;;;;;11.23;3.00;;;7.90;99.90;;;;;;4980771;28;38368;-77
2024/01/02 00:16:47;;;;;;;13.20;3.67;;;7.90;99.90;;;;;;4978366;28;36286;-77
2024/01/02 00:19:14;;;;;;;15.03;3.03;;;8.00;99.90;;;;;;4976111;28;40123;-77
2024/01/02 00:21:40;;;;;;;16.80;4.10;;;8.00;99.90;;;;;;4975991;28;38868;-76
2024/01/02 00:24:06;;;;;;;16.03;3.50;;;8.00;99.90;;;;;;4973081;28;37428;-77
2024/01/02 00:26:32;;;;;;;11.87;3.07;;;8.00;99.90;;;;;;4980279;28;37129;-77
2024/01/02 00:28:59;;;;;;;14.03;2.83;;;8.00;99.90;;;;;;4983704;28;37781;-76
2024/01/02 00:31:25;;;;;;;8.83;2.53;;;8.00;99.90;;;;;;4976925;28;38224;-77
2024/01/02 00:33:51;;;;;;;11.20;2.97;;;8.00;99.90;;;;;;4974758;28;38012;-77
2024/01/02 00:36:17;;;;;;;16.30;3.70;;;8.00;99.90;;;;;;4981137;28;37125;-77
2024/01/02 00:38:43;;;;;;;13.17;2.60;;;8.00;99.90;;;;;;4985127;28;39133;-77
2024/01/02 00:41:09;;;;;;;11.23;2.43;;;8.00;99.90;;;;;;4990173;28;39780;-77
2024/01/02 00:43:35;;;;;;;13.07;2.70;;;8.00;99.90;;;;;;4986417;28;37007;-77
2024/01/02 00:46:01;;;;;;;9.80;2.60;;;8.10;99.90;;;;;;4978884;28;36594;-78
2024/01/02 00:48:27;;;;;;;11.30;2.20;;;8.10;99.90;;;;;;4979207;28;40258;-77
2024/01/02 00:50:53;;;;;;;8.73;2.00;;;8.10;99.90;;;;;;4982633;28;37498;-79
2024/01/02 00:53:21;;;;;;;12.43;2.17;;;8.10;99.90;;;;;;4981796;28;20106;-78
2024/01/02 00:55:47;;;;;;;14.97;2.40;;;8.10;99.90;;;;;;4980662;28;35897;-78
2024/01/02 00:58:13;;;;;;;10.37;1.90;;;8.10;99.90;;;;;;4980163;28;38961;-78
2024/01/02 01:00:39;;;;;;;13.03;2.00;;;8.10;99.90;;;;;;4979644;28;37229;-78
2024/01/02 01:03:05;;;;;;;9.00;2.40;;;8.10;99.90;;;;;;4982114;28;38357;-77
2024/01/02 01:05:31;;;;;;;8.37;1.90;;;8.20;99.90;;;;;;4986180;28;36429;-77
2024/01/02 01:07:57;;;;;;;4.97;1.50;;;8.20;99.90;;;;;;4984632;28;37742;-77
2024/01/02 01:10:24;;;;;;;8.07;1.70;;;8.20;99.90;;;;;;4981654;28;39084;-77
2024/01/02 01:12:50;;;;;;;6.43;2.03;;;8.20;99.90;;;;;;4978820;28;36936;-76
2024/01/02 01:15:17;;;;;;;5.67;1.60;;;8.20;99.90;;;;;;4983872;28;38241;-77
2024/01/02 01:17:43;;;;;;;8.10;1.40;;;8.20;99.90;;;;;;4979742;28;39067;-77
2024/01/02 01:20:10;;;;;;;12.40;1.70;;;8.20;99.90;;;;;;4984203;28;38184;-77
2024/01/02 01:22:36;;;;;;;10.20;1.87;;;8.20;99.90;;;;;;4987109;28;38417;-78
2024/01/02 01:25:02;;;;;;;8.57;1.60;;;8.20;99.90;;;;;;4978616;28;36808;-77
2024/01/02 01:27:28;;;;;;;6.87;1.43;;;8.20;99.90;;;;;;4979187;28;38292;-77
2024/01/02 01:29:55;;;;;;;6.37;1.80;;;8.20;99.90;;;;;;4977968;28;40634;-77
2024/01/02 01:32:21;;;;;;;6.90;1.60;;;8.20;99.90;;;;;;4980313;28;37940;-76
2024/01/02 01:34:47;;;;;;;7.53;1.50;;;8.20;99.90;;;;;;4983400;28;37194;-78
2024/01/02 01:37:13;;;;;;;5.40;1.27;;;8.20;99.90;;;;;;4984728;28;39970;-77
2024/01/02 01:39:39;;;;;;;5.40;1.40;;;8.30;99.90;;;;;;4980150;28;37256;-78
2024/01/02 01:42:05;;;;;;;6.07;1.20;;;8.30;99.90;;;;;;4982082;28;35528;-78
2024/01/02 01:44:31;;;;;;;9.10;1.17;;;8.30;99.90;;;;;;4985022;28;36139;-77
2024/01/02 01:46:58;;;;;;;4.53;1.00;;;8.30;99.90;;;;;;4981477;28;38596;-78
2024/01/02 01:49:24;;;;;;;4.27;1.20;;;8.30;99.90;;;;;;4998587;28;39007;-77
2024/01/02 01:51:53;;;;;;;5.93;1.57;;;8.30;99.90;;;;;;4979591;28;37097;-77
2024/01/02 01:54:20;;;;;;;8.63;1.13;;;8.40;99.90;;;;;;4982328;28;36271;-77
2024/01/02 01:56:46;;;;;;;2.67;1.10;;;8.40;99.90;;;;;;4978848;28;37825;-77
2024/01/02 01:59:13;;;;;;;2.77;1.70;;;8.40;99.90;;;;;;4973173;28;37224;-77
2024/01/02 02:01:52;;;;;;;3.33;1.47;;;8.40;99.90;;;;;;5431539;23;38502;-76
2024/01/02 02:04:21;;;;;;;2.20;1.20;;;8.40;99.90;;;;;;4951949;28;35470;-76
2024/01/02 02:06:47;;;;;;;4.10;1.43;;;8.60;99.90;;;;;;4979997;28;39675;-76
2024/01/02 02:09:13;;;;;;;6.27;1.93;;;8.60;99.90;;;;;;4972933;28;37582;-77
2024/01/02 02:11:39;;;;;;;5.70;2.60;;;8.60;99.90;;;;;;4987563;28;38891;-76
2024/01/02 02:14:08;;;;;;;4.03;2.60;;;8.60;99.90;;;;;;4978365;28;37927;-76
2024/01/02 02:16:34;;;;;;;5.67;2.73;;;8.60;99.90;;;;;;4986199;28;38148;-76
2024/01/02 02:19:00;;;;;;;5.83;3.10;;;8.60;99.90;;;;;;4968038;28;35521;-76
2024/01/02 02:21:26;;;;;;;5.23;2.30;;;8.60;99.90;;;;;;4965451;28;36977;-75
2024/01/02 02:23:52;;;;;;;6.97;2.37;;;8.50;99.90;;;;;;4961946;28;34311;-76
2024/01/02 02:26:19;;;;;;;6.17;2.60;;;8.50;99.90;;;;;;4979864;28;38508;-77
2024/01/02 02:28:45;;;;;;;4.93;2.57;;;8.50;99.90;;;;;;4973642;28;38673;-76
2024/01/02 02:31:11;;;;;;;4.73;2.17;;;8.50;99.90;;;;;;4963965;28;38632;-76
2024/01/02 02:33:38;;;;;;;5.70;2.37;;;8.50;99.90;;;;;;4983316;28;36394;-76
2024/01/02 02:36:05;;;;;;;6.40;2.63;;;8.50;99.90;;;;;;4983193;28;39478;-76
2024/01/02 02:38:31;;;;;;;3.57;2.33;;;8.50;99.90;;;;;;4966984;28;37429;-76
2024/01/02 02:40:58;;;;;;;3.17;2.47;;;8.50;99.90;;;;;;4981940;28;38006;-76
2024/01/02 02:43:24;;;;;;;4.03;2.97;;;8.60;99.90;;;;;;4984449;28;36747;-76
2024/01/02 02:45:50;;;;;;;5.07;2.83;;;8.60;99.90;;;;;;4958028;28;38296;-76
2024/01/02 02:48:16;;;;;;;3.57;2.97;;;8.60;99.90;;;;;;4979696;28;39094;-76
2024/01/02 02:50:42;;;;;;;4.77;3.37;;;8.70;99.90;;;;;;4970461;28;36347;-77
2024/01/02 02:53:09;;;;;;;5.10;3.60;;;8.70;99.90;;;;;;4963863;28;36670;-76
2024/01/02 02:55:35;;;;;;;5.80;4.37;;;8.70;99.90;;;;;;4963872;28;39311;-76
2024/01/02 02:58:01;;;;;;;6.57;4.60;;;8.70;99.90;;;;;;4962123;28;35318;-76
2024/01/02 03:00:27;;;;;;;6.00;4.07;;;8.80;99.90;;;;;;4976472;28;48649;-76
2024/01/02 03:02:56;;;;;;;7.27;5.40;;;8.80;99.90;;;;;;4962924;28;37284;-76
2024/01/02 03:05:22;;;;;;;5.73;5.10;;;8.90;99.90;;;;;;4965482;28;37661;-77
2024/01/02 03:07:48;;;;;;;5.83;4.87;;;8.90;99.90;;;;;;4958336;28;38162;-76
2024/01/02 03:10:17;;;;;;;6.50;5.37;;;8.90;99.90;;;;;;4979422;28;37106;-76
2024/01/02 03:12:44;;;;;;;4.57;4.17;;;9.00;99.90;;;;;;4965835;28;36354;-76
2024/01/02 03:15:11;;;;;;;5.03;4.43;;;9.00;99.90;;;;;;4977668;28;39752;-76
2024/01/02 03:17:37;;;;;;;6.20;4.90;;;9.10;99.90;;;;;;4968792;28;37890;-77
2024/01/02 03:20:04;;;;;;;5.43;4.63;;;9.20;99.90;;;;;;4991410;28;38700;-79
2024/01/02 03:22:30;;;;;;;5.33;4.43;;;9.20;99.90;;;;;;4994210;28;47273;-77
2024/01/02 03:24:56;;;;;;;4.83;4.27;;;9.20;99.90;;;;;;4991494;28;38660;-76
2024/01/02 03:27:22;;;;;;;4.90;3.67;;;9.30;99.90;;;;;;4994556;28;39460;-76
2024/01/02 03:29:48;;;;;;;3.63;3.07;;;9.40;99.90;;;;;;4978464;28;36943;-77
2024/01/02 03:32:15;;;;;;;4.17;2.57;;;9.40;99.90;;;;;;4981255;28;37993;-78
2024/01/02 03:34:41;;;;;;;1.70;1.60;;;9.50;99.90;;;;;;4981790;28;37631;-76
2024/01/02 03:37:08;;;;;;;2.40;1.10;;;9.50;99.90;;;;;;4979448;28;37776;-76
2024/01/02 03:39:34;;;;;;;1.23;1.00;;;9.60;99.90;;;;;;4990778;28;37297;-76
2024/01/02 03:42:00;;;;;;;1.27;1.00;;;9.60;99.90;;;;;;4971263;28;35890;-76
2024/01/02 03:44:26;;;;;;;0.93;0.93;;;9.60;99.90;;;;;;4982538;28;38900;-76
2024/01/02 03:46:53;;;;;;;0.90;0.90;;;9.60;99.90;;;;;;4964520;28;38320;-76
2024/01/02 03:49:19;;;;;;;2.13;1.20;;;9.70;99.90;;;;;;4970291;28;38253;-76
2024/01/02 03:51:45;;;;;;;1.60;1.30;;;9.70;99.90;;;;;;4968270;28;36073;-76
2024/01/02 03:54:11;;;;;;;1.40;1.20;;;9.70;99.90;;;;;;4986032;28;39900;-77
2024/01/02 03:56:37;;;;;;;1.27;1.17;;;9.70;99.90;;;;;;4965575;28;38059;-77
2024/01/02 03:59:04;;;;;;;1.97;1.30;;;9.70;99.90;;;;;;4968917;28;38163;-77
2024/01/02 04:01:30;;;;;;;2.00;1.33;;;9.80;99.90;;;;;;4971896;28;37134;-77
2024/01/02 04:03:56;;;;;;;2.37;1.73;;;9.80;99.90;;;;;;4978615;28;40002;-77
2024/01/02 04:06:22;;;;;;;2.00;1.83;;;9.80;99.90;;;;;;4978623;28;36109;-77
2024/01/02 04:08:48;;;;;;;4.10;2.30;;;9.90;99.90;;;;;;4986895;28;39226;-77
2024/01/02 04:11:16;;;;;;;2.00;1.90;;;9.90;99.90;;;;;;4962873;28;35945;-78
2024/01/02 04:13:42;;;;;;;3.63;2.70;;;10.00;99.90;;;;;;4983205;28;37887;-77
2024/01/02 04:16:08;;;;;;;2.13;2.00;;;10.00;99.90;;;;;;4981656;28;39142;-77
2024/01/02 04:18:34;;;;;;;1.93;1.73;;;10.00;99.90;;;;;;4966606;28;36838;-77
2024/01/02 04:21:00;;;;;;;2.43;2.23;;;10.10;99.90;;;;;;4982707;28;38110;-77
2024/01/02 04:23:26;;;;;;;2.23;1.97;;;10.10;99.90;;;;;;4962539;28;47099;-77
2024/01/02 04:25:53;;;;;;;2.03;1.83;;;10.20;99.90;;;;;;4962444;28;36244;-77
2024/01/02 04:28:19;;;;;;;2.77;1.67;;;10.20;99.90;;;;;;4962077;28;37194;-77
2024/01/02 04:30:45;;;;;;;2.40;1.63;;;10.20;99.90;;;;;;4957967;28;36402;-77
2024/01/02 04:33:11;;;;;;;2.33;1.40;;;10.30;99.90;;;;;;4962151;28;37569;-78
2024/01/02 04:35:37;;;;;;;2.33;1.50;;;10.30;99.90;;;;;;4961966;28;38946;-77
2024/01/02 04:38:03;;;;;;;1.23;1.13;;;10.30;99.90;;;;;;4961518;28;35480;-77
2024/01/02 04:40:29;;;;;;;1.53;1.10;;;10.40;99.90;;;;;;4962416;28;36135;-77
2024/01/02 04:42:56;;;;;;;1.53;1.43;;;10.40;99.90;;;;;;4980048;28;38680;-77
2024/01/02 04:45:22;;;;;;;1.67;1.57;;;10.40;99.90;;;;;;4959725;28;37494;-77
2024/01/02 04:47:49;;;;;;;1.73;1.50;;;10.40;99.90;;;;;;4968643;28;37319;-77
2024/01/02 04:50:15;;;;;;;3.03;2.40;;;10.50;99.90;;;;;;4972875;28;36980;-76
2024/01/02 04:52:41;;;;;;;2.40;2.20;;;10.50;99.90;;;;;;4957341;28;37554;-77
2024/01/02 04:55:07;;;;;;;4.73;3.80;;;10.50;99.90;;;;;;4977585;28;38519;-77
2024/01/02 04:57:33;;;;;;;11.63;6.60;;;10.60;99.90;;;;;;4959157;28;37180;-77
2024/01/02 05:00:00;;;;;;;10.33;6.63;;;10.70;99.90;;;;;;4961568;28;35328;-77
2024/01/02 05:02:26;;;;;;;16.48;7.82;;;10.70;99.90;;;;;;4933158;28;1182429;-77
2024/01/02 05:04:52;;;;;;;19.92;7.32;;;10.90;99.90;;;;;;4977695;28;38591;-77
2024/01/02 05:07:18;;;;;;;21.27;6.17;;;11.00;99.90;;;;;;4976691;28;38481;-77
2024/01/02 05:09:44;;;;;;;24.63;6.40;;;11.10;99.90;;;;;;4986759;28;36249;-77
2024/01/02 05:12:11;;;;;;;27.80;5.10;;;11.20;99.90;;;;;;4960013;28;37793;-77
2024/01/02 05:14:38;;;;;;;38.47;5.63;;;11.30;99.90;;;;;;4970809;28;39404;-76
2024/01/02 05:17:04;;;;;;;23.65;4.40;;;11.40;99.90;;;;;;4971503;28;38225;-77
2024/01/02 05:19:30;;;;;;;32.00;5.07;;;11.40;99.90;;;;;;4977141;28;37102;-77
2024/01/02 05:21:57;;;;;;;32.90;4.60;;;11.40;99.90;;;;;;4979685;28;39495;-77
2024/01/02 05:24:23;;;;;;;41.97;6.28;;;11.50;99.90;;;;;;4965688;28;38276;-77
2024/01/02 05:26:50;;;;;;;45.00;7.30;;;11.60;99.90;;;;;;4962737;28;38086;-76
2024/01/02 05:29:17;;;;;;;46.67;6.20;;;11.50;99.90;;;;;;4965398;28;36874;-77
2024/01/02 05:31:43;;;;;;;45.88;5.82;;;11.50;99.90;;;;;;4954105;28;37672;-77
2024/01/02 05:34:09;;;;;;;49.97;6.57;;;11.60;99.90;;;;;;4967856;28;37971;-77
2024/01/02 05:36:35;;;;;;;52.13;6.30;;;11.60;99.90;;;;;;4961872;28;36862;-77
2024/01/02 05:39:02;;;;;;;55.13;6.57;;;11.60;99.90;;;;;;4958599;28;37418;-77
2024/01/02 05:41:28;;;;;;;62.88;7.15;;;11.60;99.90;;;;;;4979278;28;39008;-77
2024/01/02 05:43:55;;;;;;;59.65;7.43;;;11.60;99.90;;;;;;4972647;28;38352;-77
2024/01/02 05:46:21;;;;;;;59.60;8.23;;;11.60;99.90;;;;;;4968448;28;38530;-77
2024/01/02 05:48:47;;;;;;;68.25;9.30;;;11.70;99.90;;;;;;4974650;28;37259;-76
2024/01/02 05:51:13;;;;;;;62.78;9.50;;;11.60;99.90;;;;;;4968457;28;38634;-77
2024/01/02 05:53:39;;;;;;;68.90;10.38;;;11.60;99.90;;;;;;4968217;28;39023;-76
2024/01/02 05:56:05;;;;;;;56.30;8.63;;;11.60;99.90;;;;;;4948635;28;37269;-77
2024/01/02 05:58:31;;;;;;;74.03;9.95;;;11.60;99.90;;;;;;4957632;28;36117;-77
2024/01/02 06:00:58;;;;;;;63.38;8.75;;;11.60;99.90;;;;;;4964230;28;37828;-77
2024/01/02 06:03:24;;;;;;;61.25;9.25;;;11.50;99.90;;;;;;4978886;28;37199;-76
2024/01/02 06:05:50;;;;;;;58.58;8.32;;;11.50;99.90;;;;;;4966019;28;39352;-77
2024/01/02 06:08:16;;;;;;;49.78;7.30;;;11.50;99.90;;;;;;4979183;28;37911;-76
2024/01/02 06:10:43;;;;;;;55.55;7.75;;;11.50;99.90;;;;;;4982014;28;37570;-77
2024/01/02 06:13:09;;;;;;;60.30;8.73;;;11.50;99.90;;;;;;4977849;28;40372;-77
2024/01/02 06:15:35;;;;;;;57.70;9.73;;;11.50;99.90;;;;;;4979849;28;37030;-77
2024/01/02 06:18:01;;;;;;;72.32;9.15;;;11.50;99.90;;;;;;4983854;28;35938;-77
2024/01/02 06:20:27;;;;;;;56.70;9.50;;;11.50;99.90;;;;;;4974938;28;39507;-78
2024/01/02 06:22:53;;;;;;;63.65;9.32;;;11.50;99.90;;;;;;4981464;28;36820;-77
2024/01/02 06:25:20;;;;;;;59.42;8.52;;;11.50;99.90;;;;;;4996333;28;39149;-78
2024/01/02 06:27:46;;;;;;;61.10;9.07;;;11.50;99.90;;;;;;4994704;28;35889;-77
2024/01/02 06:30:13;;;;;;;62.08;8.38;;;11.50;99.90;;;;;;4979499;28;38123;-77
2024/01/02 06:32:40;;;;;;;66.03;8.70;;;11.50;99.90;;;;;;4976224;28;38543;-77
2024/01/02 06:35:06;;;;;;;57.90;8.85;;;11.50;99.90;;;;;;4988333;28;38543;-78
2024/01/02 06:37:32;;;;;;;54.97;8.45;;;11.50;99.90;;;;;;4976538;28;35930;-77
2024/01/02 06:39:58;;;;;;;63.40;9.13;;;11.40;99.90;;;;;;4973773;28;38355;-77
2024/01/02 06:42:24;;;;;;;75.50;9.68;;;11.40;99.90;;;;;;4991495;28;38345;-77
2024/01/02 06:44:51;;;;;;;76.27;10.10;;;11.50;99.90;;;;;;4972071;28;37258;-77
2024/01/02 06:47:17;;;;;;;65.87;9.80;;;11.50;99.90;;;;;;4972867;28;36199;-77
2024/01/02 06:49:44;;;;;;;74.18;10.75;;;11.50;99.90;;;;;;4988646;28;40820;-77
2024/01/02 06:52:10;;;;;;;72.00;9.85;;;11.50;99.90;;;;;;4993444;28;39029;-77
2024/01/02 06:54:37;;;;;;;68.22;9.07;;;11.50;99.90;;;;;;4977795;28;37107;-76
2024/01/02 06:57:03;;;;;;;62.80;8.60;;;11.50;99.90;;;;;;4971510;28;36087;-77
2024/01/02 06:59:29;;;;;;;63.58;11.02;;;11.50;99.90;;;;;;4995720;28;39990;-76
2024/01/02 07:01:55;;;;;;;59.17;8.82;;;11.50;99.90;;;;;;4994658;28;38942;-77
2024/01/02 07:04:22;;;;;;;64.70;9.27;;;11.50;99.90;;;;;;4989014;28;38868;-77
2024/01/02 07:06:48;;;;;;;61.37;9.10;;;11.60;99.90;;;;;;4989741;28;35276;-77
2024/01/02 07:09:14;;;;;;;62.13;8.60;;;11.60;99.90;;;;;;4970596;28;38516;-77
2024/01/02 07:11:40;;;;;;;58.80;7.33;;;11.60;99.90;;;;;;4986691;28;36726;-77
2024/01/02 07:14:06;;;;;;;66.00;10.70;;;11.60;99.90;;;;;;4966308;28;37445;-76
2024/01/02 07:16:32;;;;;;;65.03;10.32;;;11.60;99.90;;;;;;4989023;28;37166;-77
2024/01/02 07:18:59;;;;;;;52.92;9.90;;;11.60;99.90;;;;;;4977720;28;39029;-77
2024/01/02 07:21:25;;;;;;;72.47;9.82;;;11.60;99.90;;;;;;4971220;28;37364;-76
2024/01/02 07:23:51;;;;;;;60.70;9.52;;;11.60;99.90;;;;;;4992016;28;38653;-77
2024/01/02 07:26:17;;;;;;;68.47;9.25;;;11.60;99.90;;;;;;4968523;28;35947;-76
2024/01/02 07:28:43;;;;;;;56.80;7.63;;;11.60;99.90;;;;;;4966577;28;38647;-77
2024/01/02 07:31:13;;;;;;;60.30;8.60;;;11.60;99.90;;;;;;4966461;28;37885;-75
2024/01/02 07:33:40;;;;;;;55.88;8.27;;;11.70;99.90;;;;;;4980052;28;36928;-77
2024/01/02 07:36:06;;;;;;;55.60;9.00;;;11.60;99.90;;;;;;4962036;28;35974;-76
2024/01/02 07:38:33;;;;;;;54.13;9.07;;;11.70;99.90;;;;;;4970376;28;39341;-76
2024/01/02 07:40:59;;;;;;;68.82;8.85;;;11.70;99.90;;;;;;4964908;28;39473;-77
2024/01/02 07:43:25;;;;;;;57.70;8.37;;;11.70;99.90;;;;;;4956329;28;36714;-76
2024/01/02 07:45:51;;;;;;;55.08;10.13;;;11.70;99.90;;;;;;4960577;28;36895;-76
2024/01/02 07:48:17;;;;;;;60.88;8.63;;;11.70;99.90;;;;;;4971746;28;37794;-76
2024/01/02 07:50:43;;;;;;;52.90;10.13;;;11.70;99.90;;;;;;4966364;28;36740;-76
2024/01/02 07:53:09;;;;;;;69.00;11.43;;;11.70;99.90;;;;;;4941174;28;36977;-76
2024/01/02 07:55:35;;;;;;;67.80;8.70;;;11.70;99.90;;;;;;4953330;28;37437;-76
2024/01/02 07:58:02;;;;;;;58.42;9.50;;;11.80;99.90;;;;;;4975728;28;39696;-76
2024/01/02 08:00:28;;;;;;;62.00;8.50;;;11.70;99.90;;;;;;4962315;28;39665;-76
2024/01/02 08:02:54;;;;;;;59.92;9.30;;;11.80;99.90;;;;;;4976928;28;37957;-76
2024/01/02 08:05:20;;;;;;;48.22;7.85;;;11.80;99.90;;;;;;4974863;28;36883;-75
2024/01/02 08:07:46;;;;;;;54.83;7.90;;;11.80;99.90;;;;;;4961959;28;37334;-75
2024/01/02 08:10:12;;;;;;;54.37;8.20;;;11.80;99.90;;;;;;4976192;28;38634;-75
2024/01/02 08:12:38;;;;;;;52.53;8.85;;;11.70;99.90;;;;;;4979131;28;36978;-75
2024/01/02 08:15:05;;;;;;;51.45;8.75;;;11.70;99.90;;;;;;4957041;28;36038;-76
2024/01/02 08:17:31;;;;;;;59.53;9.43;;;11.70;99.90;;;;;;4959192;28;38830;-76
2024/01/02 08:19:57;;;;;;;52.83;7.90;;;11.70;99.90;;;;;;4977180;28;37270;-75
2024/01/02 08:22:23;;;;;;;60.45;7.80;;;11.70;99.90;;;;;;4971766;28;37698;-75
2024/01/02 08:24:49;;;;;;;54.40;7.57;;;11.70;99.90;;;;;;4969215;28;38779;-75
2024/01/02 08:27:15;;;;;;;49.63;8.25;;;11.70;99.90;;;;;;4983947;28;38659;-76
2024/01/02 08:29:42;;;;;;;51.10;8.38;;;11.60;99.90;;;;;;4966741;28;37222;-75
2024/01/02 08:32:08;;;;;;;51.92;8.60;;;11.70;99.90;;;;;;4970230;28;37283;-76
2024/01/02 08:34:34;;;;;;;51.53;7.93;;;11.70;99.90;;;;;;4978418;28;38403;-75
2024/01/02 08:37:00;;;;;;;61.93;8.73;;;11.70;99.90;;;;;;4982907;28;37802;-75
2024/01/02 08:39:26;;;;;;;53.50;8.13;;;11.80;99.90;;;;;;4975905;28;38559;-76
2024/01/02 08:41:52;;;;;;;57.95;7.68;;;11.80;99.90;;;;;;4958235;28;36871;-76
2024/01/02 08:44:18;;;;;;;59.67;8.93;;;11.80;99.90;;;;;;4959151;28;37861;-76
2024/01/02 08:46:44;;;;;;;59.25;9.82;;;11.90;99.90;;;;;;4976716;28;39867;-76
2024/01/02 08:49:12;;;;;;;53.33;8.50;;;11.90;99.90;;;;;;4975678;28;38350;-76
2024/01/02 08:51:39;;;;;;;53.38;8.45;;;11.90;99.90;;;;;;4960633;28;36972;-76
2024/01/02 08:54:05;;;;;;;58.22;8.75;;;11.90;99.90;;;;;;4980089;28;38457;-76
2024/01/02 08:56:31;;;;;;;58.63;8.75;;;12.00;99.90;;;;;;4968379;28;37684;-77
2024/01/02 08:58:57;;;;;;;59.78;8.45;;;12.00;99.90;;;;;;4962172;28;37372;-77
2024/01/02 09:01:26;;;;;;;55.53;7.50;;;12.10;99.90;;;;;;4964489;28;36910;-77
2024/01/02 09:03:53;;;;;;;42.13;7.43;;;12.10;99.90;;;;;;4965525;28;36986;-76
2024/01/02 09:06:19;;;;;;;44.67;7.28;;;12.10;99.90;;;;;;4981860;28;38888;-77
2024/01/02 09:08:46;;;;;;;44.95;7.05;;;12.10;99.90;;;;;;4963985;28;37419;-76
2024/01/02 09:11:13;;;;;;;50.60;8.25;;;12.20;99.90;;;;;;4968825;28;37567;-76
2024/01/02 09:13:39;;;;;;;46.33;7.07;;;12.20;99.90;;;;;;4968292;28;36408;-76
2024/01/02 09:16:07;;;;;;;44.70;7.03;;;12.20;99.90;;;;;;4965094;28;38778;-75
2024/01/02 09:18:34;;;;;;;43.53;6.97;;;12.20;99.90;;;;;;4981836;28;39250;-75
2024/01/02 09:21:00;;;;;;;37.42;7.63;;;12.20;99.90;;;;;;4963290;28;36894;-76
2024/01/02 09:23:26;;;;;;;36.63;6.10;;;12.20;99.90;;;;;;4967264;28;36647;-76
2024/01/02 09:25:55;;;;;;;38.42;5.85;;;12.20;99.90;;;;;;4981977;28;39439;-76
2024/01/02 09:28:22;;;;;;;34.15;5.65;;;12.20;99.90;;;;;;4969551;28;38418;-76
2024/01/02 09:30:48;;;;;;;34.22;6.22;;;12.30;99.90;;;;;;4981868;28;38494;-77
2024/01/02 09:33:14;;;;;;;30.85;6.95;;;12.30;99.90;;;;;;4959718;28;36073;-76
2024/01/02 09:35:42;;;;;;;31.55;5.40;;;12.40;99.90;;;;;;4971774;28;37299;-76
2024/01/02 09:38:08;;;;;;;38.20;6.78;;;12.40;99.90;;;;;;4968606;28;38508;-76
2024/01/02 09:40:45;;;;;;;27.77;5.47;;;12.40;99.90;;;;;;4982612;28;37864;-76
2024/01/02 09:43:18;;;;;;;34.20;5.20;;;12.40;99.90;;;;;;4985597;28;38216;-76
2024/01/02 09:46:05;;;;;;;23.17;5.13;;;12.40;99.90;;;;;;4979049;28;38552;-76
2024/01/02 09:48:51;;;;;;;30.42;5.72;;;12.40;99.90;;;;;;4985724;28;47832;-76
2024/01/02 09:51:31;;;;;;;34.97;5.60;;;12.40;99.90;;;;;;4972688;28;37158;-76
2024/01/02 09:54:31;;;;;;;26.55;5.72;;;12.40;99.90;;;;;;4972617;28;36582;-76
2024/01/02 09:57:16;;;;;;;29.83;4.28;;;12.40;99.90;;;;;;4972715;28;47206;-77
2024/01/02 10:00:06;;;;;;;24.48;5.07;;;12.30;99.90;;;;;;4981231;28;47048;-75
2024/01/02 10:03:05;;;;;;;20.00;3.75;;;12.30;99.90;;;;;;4973105;28;35476;-76
2024/01/02 10:05:55;;;;;;;17.33;3.13;;;12.30;99.90;;;;;;4995841;28;48704;-76
2024/01/02 10:08:47;;;;;;;17.98;3.20;;;12.30;99.90;;;;;;4961584;28;38989;-76
2024/01/02 10:11:27;;;;;;;15.57;2.95;;;12.30;99.90;;;;;;4983132;28;39351;-76
2024/01/02 10:14:02;;;;;;;10.90;3.30;;;12.30;99.90;;;;;;4968738;28;36956;-77
2024/01/02 10:16:34;;;;;;;6.25;2.15;;;12.30;99.90;;;;;;4968086;28;47161;-77
2024/01/02 10:19:30;;;;;;;11.45;2.33;;;12.30;99.90;;;;;;4966872;28;39006;-76
2024/01/02 10:22:18;;;;;;;6.95;2.92;;;12.30;99.90;;;;;;4982710;28;47163;-77
2024/01/02 10:24:50;;;;;;;6.13;2.10;;;12.30;99.90;;;;;;4984534;28;47117;-76
2024/01/02 10:27:32;;;;;;;8.65;2.30;;;12.30;99.90;;;;;;4980935;28;37814;-76
2024/01/02 10:30:08;;;;;;;8.50;2.60;;;12.30;99.90;;;;;;4986087;28;38698;-75
2024/01/02 10:32:54;;;;;;;8.38;2.47;;;12.30;99.90;;;;;;4964475;28;47093;-75
2024/01/02 10:35:42;;;;;;;7.47;2.38;;;12.20;99.90;;;;;;4977505;28;38301;-75
2024/01/02 10:38:40;;;;;;;7.80;3.63;;;12.20;99.90;;;;;;4966695;28;36240;-75
2024/01/02 10:41:37;;;;;;;7.72;5.28;;;12.30;99.90;;;;;;4981897;28;38935;-77
2024/01/02 10:44:27;;;;;;;7.10;4.20;;;12.20;99.90;;;;;;4977036;28;37270;-77
2024/01/02 10:47:02;;;;;;;7.80;4.95;;;12.20;99.90;;;;;;4967020;28;38539;-77
2024/01/02 10:49:40;;;;;;;9.57;4.97;;;12.20;99.90;;;;;;4983054;28;48295;-77
2024/01/02 10:52:42;;;;;;;8.68;4.70;;;12.10;99.90;;;;;;4981312;28;40607;-76
2024/01/02 10:55:29;;;;;;;9.13;6.05;;;12.10;99.90;;;;;;4871855;29;37627;-76
2024/01/02 10:58:15;;;;;;;7.25;5.65;;;12.10;99.90;;;;;;4979067;28;38401;-77
2024/01/02 11:01:03;;;;;;;7.72;5.38;;;12.10;99.90;;;;;;4967841;28;48031;-76
2024/01/02 11:03:40;;;;;;;7.25;5.72;;;12.10;99.90;;;;;;4969717;28;47343;-76
2024/01/02 11:06:23;;;;;;;4.82;4.35;;;12.10;99.90;;;;;;4979662;28;35640;-75
2024/01/02 11:09:17;;;;;;;3.90;3.60;;;12.10;99.90;;;;;;4964904;28;36877;-76
2024/01/02 11:11:50;;;;;;;4.85;3.58;;;12.00;99.90;;;;;;4962183;28;47371;-79
2024/01/02 11:14:19;;;;;;;3.00;2.70;;;12.00;99.90;;;;;;4989190;28;38568;-78
2024/01/02 11:16:47;;;;;;;2.53;2.33;;;12.00;99.90;;;;;;4967597;28;37199;-76
2024/01/02 11:19:15;;;;;;;3.05;2.20;;;12.00;99.90;;;;;;4981099;28;38586;-76
2024/01/02 11:21:58;;;;;;;2.47;1.60;;;12.00;99.90;;;;;;4962409;28;36432;-76
2024/01/02 11:24:25;;;;;;;;;;;12.00;99.90;;;;;;4966601;28;39527;-76
2024/01/02 11:26:56;;;;;;;1.10;1.00;;;12.00;99.90;;;;;;4970901;28;38694;-77
2024/01/02 11:29:24;;;;;;;3.70;1.23;;;11.90;99.90;;;;;;4956673;28;36868;-76
2024/01/02 11:31:52;;;;;;;1.77;0.65;;;11.90;99.90;;;;;;4969736;28;35989;-77
2024/01/02 11:34:57;;;;;;;1.50;1.20;;;11.90;99.90;;;;;;4963376;28;38849;-77
2024/01/02 11:37:35;;;;;;;2.05;1.33;;;11.90;99.90;;;;;;4978304;28;38571;-77
2024/01/02 11:40:45;;;;;;;1.60;1.50;;;11.90;99.90;;;;;;4974995;28;38050;-74
2024/01/02 11:43:14;;;;;;;3.15;1.50;;;11.90;99.90;;;;;;4941216;28;48239;-76
2024/01/02 11:45:44;;;;;;;1.52;1.42;;;11.90;99.90;;;;;;4945538;28;37673;-75
2024/01/02 11:48:23;;;;;;;1.15;1.15;;;11.90;99.90;;;;;;4964222;28;38471;-76
2024/01/02 11:51:05;;;;;;;1.20;1.13;;;11.90;99.90;;;;;;4965286;28;36994;-76
2024/01/02 11:53:58;;;;;;;1.10;1.00;;;11.90;99.90;;;;;;4983480;28;47204;-77
2024/01/02 11:56:28;;;;;;;2.08;1.00;;;11.90;99.90;;;;;;4965244;28;38124;-77
2024/01/02 11:59:13;;;;;;;1.65;1.02;;;11.90;99.90;;;;;;4965344;28;38663;-76
2024/01/02 12:02:21;;;;;;;1.05;1.00;;;11.90;99.90;;;;;;4967716;28;46996;-77
2024/01/02 12:05:02;;;;;;;1.38;1.00;;;11.90;99.90;;;;;;4984337;28;48041;-76
2024/01/02 12:07:33;;;;;;;1.15;1.00;;;11.90;99.90;;;;;;4975907;28;39238;-77
2024/01/02 12:10:00;;;;;;;1.20;0.80;;;11.80;99.90;;;;;;4971639;28;37300;-77
2024/01/02 12:12:38;;;;;;;4.35;0.90;;;11.80;99.90;;;;;;4966630;28;39438;-77
2024/01/02 12:15:23;;;;;;;2.80;0.82;;;11.80;99.90;;;;;;4963943;28;36125;-76
2024/01/02 12:18:02;;;;;;;0.93;0.68;;;11.80;99.90;;;;;;4957059;28;39032;-76
2024/01/02 12:20:37;;;;;;;0.85;0.75;;;11.70;99.90;;;;;;4984286;28;49488;-76
2024/01/02 12:23:05;;;;;;;0.47;0.47;;;11.70;99.90;;;;;;4981775;28;38226;-75
2024/01/02 12:25:32;;;;;;;2.33;0.43;;;11.70;99.90;;;;;;4967692;28;36206;-76
2024/01/02 12:28:01;;;;;;;3.93;1.90;;;11.70;99.90;;;;;;4965169;28;37781;-76
2024/01/02 12:30:30;;;;;;;1.80;1.00;;;11.70;99.90;;;;;;4978152;28;49546;-75
2024/01/02 12:33:23;;;;;;;1.73;0.90;;;11.70;99.90;;;;;;4989545;28;37220;-79
2024/01/02 12:36:23;;;;;;;3.85;1.50;;;11.70;99.90;;;;;;4985846;28;47316;-82
2024/01/02 12:38:52;;;;;;;4.60;2.70;;;11.70;99.90;;;;;;4971924;28;47233;-78
2024/01/02 12:41:20;;;;;;;3.60;3.30;;;11.70;99.90;;;;;;4984126;28;39940;-79
2024/01/02 12:43:51;;;;;;;4.88;4.47;;;11.70;99.90;;;;;;4989206;28;37893;-80
2024/01/02 12:46:25;;;;;;;6.50;4.35;;;11.60;99.90;;;;;;4965703;28;37571;-80
2024/01/02 12:49:09;;;;;;;3.70;3.40;;;11.70;99.90;;;;;;4957231;28;37692;-79
2024/01/02 12:51:37;;;;;;;4.70;2.73;;;11.60;99.90;;;;;;4989036;28;48858;-81
2024/01/02 12:54:08;;;;;;;2.40;2.20;;;11.60;99.90;;;;;;4976360;28;38532;-80
2024/01/02 12:56:40;;;;;;;1.88;1.65;;;11.60;99.90;;;;;;4973105;28;36229;-81
2024/01/02 12:59:07;;;;;;;2.22;1.98;;;11.60;99.90;;;;;;4992172;28;38263;-80